createdAt,value
2017-08-16T00:00:07.690Z,55.63
2017-08-16T00:01:21.853Z,55.43
2017-08-16T00:02:23.747Z,55.24
2017-08-16T00:03:25.623Z,55.15
2017-08-16T00:04:27.511Z,55.15
2017-08-16T00:05:29.333Z,55.24
2017-08-16T00:06:31.157Z,55.43
2017-08-16T00:07:33.042Z,55.24
2017-08-16T00:08:34.937Z,55.05
2017-08-16T00:09:36.825Z,55.24
2017-08-16T00:10:50.991Z,54.66
2017-08-16T00:11:52.878Z,55.24
2017-08-16T00:12:54.763Z,55.24
2017-08-16T00:13:56.652Z,55.05
2017-08-16T00:14:58.478Z,54.75
2017-08-16T00:16:00.301Z,54.85
2017-08-16T00:17:02.186Z,55.05
2017-08-16T00:18:04.082Z,55.24
2017-08-16T00:19:05.971Z,55.43
2017-08-16T00:20:20.115Z,55.24
2017-08-16T00:21:22.012Z,55.15
2017-08-16T00:22:23.896Z,55.05
2017-08-16T00:23:25.794Z,55.53
2017-08-16T00:24:27.618Z,55.05
2017-08-16T00:25:29.439Z,55.05
2017-08-16T00:26:31.325Z,55.31
2017-08-16T00:27:33.208Z,55.21
2017-08-16T00:28:35.096Z,55.79
2017-08-16T00:29:49.260Z,55.60
2017-08-16T00:30:51.146Z,56.28
2017-08-16T00:31:53.031Z,56.57
2017-08-16T00:32:54.917Z,56.57
2017-08-16T00:33:56.743Z,56.45
2017-08-16T00:34:58.563Z,56.57
2017-08-16T00:36:00.451Z,56.86
2017-08-16T00:37:02.346Z,56.57
2017-08-16T00:38:04.235Z,56.67
2017-08-16T00:39:18.399Z,56.95
2017-08-16T00:40:20.285Z,57.34
2017-08-16T00:41:22.170Z,57.15
2017-08-16T00:42:24.055Z,56.67
2017-08-16T00:43:25.879Z,56.57
2017-08-16T00:44:27.703Z,57.31
2017-08-16T00:45:29.588Z,57.79
2017-08-16T00:46:31.475Z,57.79
2017-08-16T00:47:33.363Z,58.35
2017-08-16T00:48:47.525Z,58.06
2017-08-16T00:49:49.410Z,58.06
2017-08-16T00:50:51.299Z,58.35
2017-08-16T00:51:53.179Z,57.29
2017-08-16T00:52:55.004Z,56.99
2017-08-16T00:53:56.826Z,57.19
2017-08-16T00:54:58.711Z,57.89
2017-08-16T00:56:00.606Z,58.37
2017-08-16T00:57:02.492Z,57.89
2017-08-16T00:58:16.659Z,58.18
2017-08-16T00:59:18.544Z,57.44
2017-08-16T01:00:20.430Z,57.41
2017-08-16T01:01:22.316Z,57.60
2017-08-16T01:02:24.139Z,58.09
2017-08-16T01:03:25.963Z,58.18
2017-08-16T01:04:27.850Z,58.28
2017-08-16T01:05:29.738Z,58.09
2017-08-16T01:06:31.624Z,57.99
2017-08-16T01:07:45.786Z,58.37
2017-08-16T01:08:47.676Z,58.09
2017-08-16T01:09:49.562Z,58.09
2017-08-16T01:10:51.450Z,57.99
2017-08-16T01:11:53.468Z,58.06
2017-08-16T01:12:55.293Z,58.06
2017-08-16T01:13:57.178Z,58.25
2017-08-16T01:14:59.065Z,58.35
2017-08-16T01:16:00.954Z,58.73
2017-08-16T01:17:15.116Z,58.83
2017-08-16T01:18:17.012Z,58.83
2017-08-16T01:19:18.897Z,58.83
2017-08-16T01:20:20.782Z,58.64
2017-08-16T01:21:22.621Z,59.51
2017-08-16T01:22:24.438Z,59.22
2017-08-16T01:23:26.332Z,59.41
2017-08-16T01:24:28.219Z,59.51
2017-08-16T01:25:30.106Z,59.99
2017-08-16T01:26:44.270Z,59.80
2017-08-16T01:27:46.160Z,60.28
2017-08-16T01:28:48.044Z,59.99
2017-08-16T01:29:49.929Z,60.38
2017-08-16T01:30:51.769Z,60.47
2017-08-16T01:31:53.590Z,60.96
2017-08-16T01:32:55.474Z,60.96
2017-08-16T01:33:57.323Z,60.76
2017-08-16T01:34:59.150Z,60.67
2017-08-16T01:36:13.311Z,60.38
2017-08-16T01:37:15.197Z,60.86
2017-08-16T01:38:17.100Z,60.76
2017-08-16T01:39:18.988Z,60.38
2017-08-16T01:40:20.814Z,61.54
2017-08-16T01:41:23.060Z,61.25
2017-08-16T01:42:24.941Z,61.44
2017-08-16T01:43:26.820Z,61.34
2017-08-16T01:44:28.705Z,62.02
2017-08-16T01:45:42.882Z,61.92
2017-08-16T01:46:44.763Z,62.21
2017-08-16T01:47:46.660Z,61.89
2017-08-16T01:48:48.547Z,61.89
2017-08-16T01:49:50.372Z,62.18
2017-08-16T01:50:52.205Z,62.57
2017-08-16T01:51:54.089Z,61.99
2017-08-16T01:52:55.973Z,62.57
2017-08-16T01:53:57.867Z,62.37
2017-08-16T01:55:12.027Z,62.28
2017-08-16T01:56:13.910Z,62.28
2017-08-16T01:57:15.795Z,62.28
2017-08-16T01:58:17.676Z,62.66
2017-08-16T01:59:19.502Z,62.95
2017-08-16T02:00:21.325Z,63.05
2017-08-16T02:01:23.207Z,62.86
2017-08-16T02:02:25.099Z,62.95
2017-08-16T02:03:26.997Z,62.66
2017-08-16T02:04:41.156Z,62.86
2017-08-16T02:05:43.053Z,63.24
2017-08-16T02:06:44.949Z,63.24
2017-08-16T02:07:46.837Z,63.15
2017-08-16T02:08:48.663Z,63.34
2017-08-16T02:09:50.497Z,63.82
2017-08-16T02:10:52.383Z,63.43
2017-08-16T02:11:54.278Z,63.73
2017-08-16T02:12:56.161Z,64.01
2017-08-16T02:14:10.334Z,63.92
2017-08-16T02:15:12.219Z,63.92
2017-08-16T02:16:14.106Z,63.89
2017-08-16T02:17:15.995Z,64.21
2017-08-16T02:18:17.830Z,63.92
2017-08-16T02:19:19.645Z,64.01
2017-08-16T02:20:21.539Z,64.31
2017-08-16T02:21:23.386Z,63.92
2017-08-16T02:22:25.207Z,64.11
2017-08-16T02:23:39.415Z,64.11
2017-08-16T02:24:41.312Z,63.92
2017-08-16T02:25:43.207Z,64.40
2017-08-16T02:26:45.100Z,63.92
2017-08-16T02:27:46.926Z,64.01
2017-08-16T02:28:48.759Z,64.79
2017-08-16T02:29:50.640Z,64.50
2017-08-16T02:30:52.534Z,64.69
2017-08-16T02:31:54.421Z,64.50
2017-08-16T02:33:08.580Z,64.31
2017-08-16T02:34:10.467Z,64.31
2017-08-16T02:35:12.354Z,64.59
2017-08-16T02:36:14.237Z,64.59
2017-08-16T02:37:16.075Z,64.40
2017-08-16T02:38:17.902Z,64.59
2017-08-16T02:39:19.790Z,64.79
2017-08-16T02:40:21.668Z,64.79
2017-08-16T02:41:23.554Z,64.89
2017-08-16T02:42:37.713Z,64.50
2017-08-16T02:43:39.611Z,64.31
2017-08-16T02:44:41.507Z,64.34
2017-08-16T02:45:43.419Z,64.63
2017-08-16T02:46:45.244Z,64.43
2017-08-16T02:47:47.068Z,64.05
2017-08-16T02:48:48.962Z,64.14
2017-08-16T02:49:50.839Z,64.05
2017-08-16T02:50:52.725Z,64.14
2017-08-16T02:52:06.887Z,64.63
2017-08-16T02:53:08.816Z,64.43
2017-08-16T02:54:10.676Z,64.53
2017-08-16T02:55:12.563Z,64.43
2017-08-16T02:56:14.389Z,64.63
2017-08-16T02:57:16.211Z,64.72
2017-08-16T02:58:18.107Z,65.40
2017-08-16T02:59:19.995Z,64.98
2017-08-16T03:00:21.882Z,65.01
2017-08-16T03:01:36.042Z,65.11
2017-08-16T03:02:37.926Z,65.11
2017-08-16T03:03:39.809Z,65.17
2017-08-16T03:04:41.706Z,65.37
2017-08-16T03:05:43.541Z,65.95
2017-08-16T03:06:45.361Z,65.75
2017-08-16T03:07:47.258Z,65.75
2017-08-16T03:08:49.146Z,66.33
2017-08-16T03:09:51.030Z,66.53
2017-08-16T03:11:05.190Z,66.33
2017-08-16T03:12:07.088Z,66.72
2017-08-16T03:13:08.971Z,67.20
2017-08-16T03:14:10.854Z,67.01
2017-08-16T03:15:12.679Z,66.82
2017-08-16T03:16:14.512Z,67.30
2017-08-16T03:17:16.398Z,67.11
2017-08-16T03:18:18.294Z,67.11
2017-08-16T03:19:20.184Z,66.72
2017-08-16T03:20:34.341Z,67.01
2017-08-16T03:21:36.238Z,67.30
2017-08-16T03:22:38.134Z,67.40
2017-08-16T03:23:40.021Z,67.49
2017-08-16T03:24:41.846Z,67.49
2017-08-16T03:25:43.671Z,67.30
2017-08-16T03:26:45.570Z,67.30
2017-08-16T03:27:47.457Z,67.40
2017-08-16T03:28:49.343Z,67.49
2017-08-16T03:30:03.498Z,67.59
2017-08-16T03:31:05.323Z,67.30
2017-08-16T03:32:07.145Z,67.88
2017-08-16T03:33:08.994Z,67.59
2017-08-16T03:34:10.881Z,67.49
2017-08-16T03:35:12.767Z,67.69
2017-08-16T03:36:14.603Z,68.07
2017-08-16T03:37:16.428Z,67.78
2017-08-16T03:38:18.263Z,67.78
2017-08-16T03:39:32.488Z,67.97
2017-08-16T03:40:34.374Z,68.17
2017-08-16T03:41:36.270Z,68.46
2017-08-16T03:42:38.158Z,68.62
2017-08-16T03:43:39.989Z,68.94
2017-08-16T03:44:41.811Z,68.71
2017-08-16T03:45:43.694Z,68.33
2017-08-16T03:46:45.580Z,68.65
2017-08-16T03:47:47.466Z,68.52
2017-08-16T03:49:01.640Z,68.91
2017-08-16T03:50:03.528Z,68.46
2017-08-16T03:51:05.420Z,68.36
2017-08-16T03:52:07.307Z,68.17
2017-08-16T03:53:09.138Z,68.36
2017-08-16T03:54:10.962Z,68.17
2017-08-16T03:55:12.860Z,68.36
2017-08-16T03:56:14.760Z,68.26
2017-08-16T03:57:16.648Z,67.97
2017-08-16T03:58:30.870Z,67.97
2017-08-16T03:59:32.759Z,67.97
2017-08-16T04:00:34.658Z,68.07
2017-08-16T04:01:36.545Z,68.26
2017-08-16T04:02:38.392Z,68.10
2017-08-16T04:03:40.230Z,68.46
2017-08-16T04:04:42.068Z,68.36
2017-08-16T04:05:43.957Z,68.20
2017-08-16T04:06:45.846Z,68.10
2017-08-16T04:08:00.061Z,68.01
2017-08-16T04:09:01.949Z,68.10
2017-08-16T04:10:03.849Z,68.40
2017-08-16T04:11:05.739Z,68.88
2017-08-16T04:12:07.569Z,69.17
2017-08-16T04:13:09.395Z,69.17
2017-08-16T04:14:11.281Z,69.32
2017-08-16T04:15:13.170Z,69.07
2017-08-16T04:16:15.056Z,69.26
2017-08-16T04:17:29.218Z,69.36
2017-08-16T04:18:31.107Z,69.26
2017-08-16T04:19:33.006Z,69.17
2017-08-16T04:20:34.895Z,69.17
2017-08-16T04:21:36.734Z,69.26
2017-08-16T04:22:38.571Z,69.07
2017-08-16T04:23:40.461Z,69.65
2017-08-16T04:24:42.361Z,70.04
2017-08-16T04:25:44.249Z,69.94
2017-08-16T04:26:58.414Z,69.84
2017-08-16T04:28:00.302Z,69.84
2017-08-16T04:29:02.207Z,69.65
2017-08-16T04:30:04.102Z,69.46
2017-08-16T04:31:05.972Z,69.46
2017-08-16T04:32:07.811Z,69.17
2017-08-16T04:33:09.638Z,69.65
2017-08-16T04:34:11.527Z,69.84
2017-08-16T04:35:13.413Z,69.94
2017-08-16T04:36:27.591Z,70.75
2017-08-16T04:37:29.480Z,70.32
2017-08-16T04:38:31.376Z,71.00
2017-08-16T04:39:33.274Z,71.39
2017-08-16T04:40:35.104Z,71.78
2017-08-16T04:41:36.930Z,71.68
2017-08-16T04:42:38.817Z,72.06
2017-08-16T04:43:40.717Z,72.74
2017-08-16T04:44:42.617Z,72.94
2017-08-16T04:45:56.780Z,72.94
2017-08-16T04:46:58.673Z,73.03
2017-08-16T04:48:00.571Z,72.84
2017-08-16T04:49:02.464Z,72.71
2017-08-16T04:50:04.293Z,72.80
2017-08-16T04:51:06.120Z,72.71
2017-08-16T04:52:08.007Z,72.32
2017-08-16T04:53:09.910Z,72.52
2017-08-16T04:54:11.803Z,72.45
2017-08-16T04:55:25.970Z,72.36
2017-08-16T04:56:27.857Z,72.52
2017-08-16T04:57:29.755Z,72.03
2017-08-16T04:58:31.645Z,72.03
2017-08-16T04:59:33.471Z,71.45
2017-08-16T05:00:35.305Z,72.03
2017-08-16T05:01:37.199Z,72.03
2017-08-16T05:02:39.083Z,71.84
2017-08-16T05:03:40.969Z,72.09
2017-08-16T05:04:55.133Z,73.73
2017-08-16T05:05:57.021Z,75.09
2017-08-16T05:06:58.926Z,75.95
2017-08-16T05:08:00.816Z,76.15
2017-08-16T05:09:02.644Z,76.53
2017-08-16T05:10:04.471Z,77.21
2017-08-16T05:11:06.358Z,77.69
2017-08-16T05:12:08.257Z,78.46
2017-08-16T05:13:10.157Z,78.75
2017-08-16T05:14:24.320Z,79.14
2017-08-16T05:15:26.215Z,79.04
2017-08-16T05:16:28.104Z,78.94
2017-08-16T05:17:29.994Z,79.62
2017-08-16T05:18:31.863Z,78.94
2017-08-16T05:19:33.677Z,78.94
2017-08-16T05:20:35.578Z,78.56
2017-08-16T05:21:37.471Z,78.36
2017-08-16T05:22:39.373Z,77.88
2017-08-16T05:23:53.548Z,77.88
2017-08-16T05:24:55.438Z,77.98
2017-08-16T05:25:57.342Z,78.17
2017-08-16T05:26:59.234Z,78.46
2017-08-16T05:28:01.062Z,78.46
2017-08-16T05:29:02.889Z,79.14
2017-08-16T05:30:04.782Z,78.75
2017-08-16T05:31:06.676Z,79.14
2017-08-16T05:32:08.577Z,78.75
2017-08-16T05:33:22.741Z,78.56
2017-08-16T05:34:24.631Z,78.66
2017-08-16T05:35:26.520Z,78.85
2017-08-16T05:36:28.410Z,78.85
2017-08-16T05:37:30.238Z,79.04
2017-08-16T05:38:32.075Z,79.04
2017-08-16T05:39:33.964Z,79.24
2017-08-16T05:40:35.852Z,79.52
2017-08-16T05:41:37.746Z,79.24
2017-08-16T05:42:51.955Z,79.24
2017-08-16T05:43:53.846Z,79.14
2017-08-16T05:44:55.745Z,79.52
2017-08-16T05:45:57.639Z,79.52
2017-08-16T05:46:59.467Z,79.62
2017-08-16T05:48:01.292Z,79.52
2017-08-16T05:49:03.194Z,79.24
2017-08-16T05:50:05.084Z,78.85
2017-08-16T05:51:06.973Z,79.14
2017-08-16T05:52:21.139Z,79.17
2017-08-16T05:53:23.030Z,78.89
2017-08-16T05:54:24.931Z,78.99
2017-08-16T05:55:26.823Z,79.47
2017-08-16T05:56:28.655Z,79.66
2017-08-16T05:57:30.483Z,79.56
2017-08-16T05:58:32.375Z,79.17
2017-08-16T05:59:34.266Z,78.79
2017-08-16T06:00:36.159Z,78.69
2017-08-16T06:01:50.325Z,78.99
2017-08-16T06:02:52.224Z,78.99
2017-08-16T06:03:54.123Z,79.08
2017-08-16T06:04:56.025Z,79.47
2017-08-16T06:05:57.855Z,79.47
2017-08-16T06:06:59.690Z,78.99
2017-08-16T06:08:01.592Z,79.47
2017-08-16T06:09:03.485Z,79.81
2017-08-16T06:10:05.377Z,80.30
2017-08-16T06:11:19.542Z,80.39
2017-08-16T06:12:21.434Z,80.53
2017-08-16T06:13:23.324Z,80.24
2017-08-16T06:14:25.217Z,80.53
2017-08-16T06:15:27.047Z,80.82
2017-08-16T06:16:28.874Z,80.14
2017-08-16T06:17:30.713Z,80.28
2017-08-16T06:18:32.581Z,80.66
2017-08-16T06:19:34.389Z,80.66
2017-08-16T06:20:48.552Z,81.05
2017-08-16T06:21:50.443Z,79.99
2017-08-16T06:22:52.334Z,79.60
2017-08-16T06:23:54.224Z,79.50
2017-08-16T06:24:56.062Z,79.60
2017-08-16T06:25:57.881Z,79.31
2017-08-16T06:26:59.787Z,79.41
2017-08-16T06:28:01.678Z,79.80
2017-08-16T06:29:03.567Z,79.89
2017-08-16T06:30:17.734Z,79.74
2017-08-16T06:31:19.627Z,80.12
2017-08-16T06:32:21.532Z,79.83
2017-08-16T06:33:23.437Z,79.25
2017-08-16T06:34:25.258Z,78.19
2017-08-16T06:35:27.085Z,78.29
2017-08-16T06:36:28.979Z,78.77
2017-08-16T06:37:30.868Z,78.87
2017-08-16T06:38:32.770Z,78.87
2017-08-16T06:39:47.000Z,78.96
2017-08-16T06:40:48.891Z,79.16
2017-08-16T06:41:50.791Z,79.45
2017-08-16T06:42:52.694Z,79.06
2017-08-16T06:43:54.527Z,78.87
2017-08-16T06:44:56.353Z,79.00
2017-08-16T06:45:58.246Z,78.71
2017-08-16T06:47:00.138Z,77.36
2017-08-16T06:48:02.038Z,76.97
2017-08-16T06:49:16.207Z,76.59
2017-08-16T06:50:18.114Z,76.62
2017-08-16T06:51:20.002Z,76.68
2017-08-16T06:52:21.900Z,76.91
2017-08-16T06:53:23.728Z,76.62
2017-08-16T06:54:25.568Z,76.43
2017-08-16T06:55:27.423Z,76.53
2017-08-16T06:56:29.288Z,77.11
2017-08-16T06:57:31.116Z,77.11
2017-08-16T06:58:45.263Z,76.62
2017-08-16T06:59:47.157Z,76.72
2017-08-16T07:00:49.046Z,75.95
2017-08-16T07:01:50.938Z,75.65
2017-08-16T07:02:52.775Z,75.46
2017-08-16T07:03:54.616Z,75.02
2017-08-16T07:04:56.508Z,75.85
2017-08-16T07:05:58.399Z,75.85
2017-08-16T07:07:00.289Z,75.65
2017-08-16T07:08:14.757Z,76.04
2017-08-16T07:09:16.651Z,76.62
2017-08-16T07:10:18.545Z,76.68
2017-08-16T07:11:20.438Z,77.26
2017-08-16T07:12:22.273Z,77.36
2017-08-16T07:13:24.103Z,78.52
2017-08-16T07:14:25.997Z,78.23
2017-08-16T07:15:27.889Z,77.26
2017-08-16T07:16:29.783Z,76.59
2017-08-16T07:17:43.950Z,76.33
2017-08-16T07:18:45.840Z,75.65
2017-08-16T07:19:47.732Z,75.95
2017-08-16T07:20:49.625Z,76.04
2017-08-16T07:21:51.469Z,76.37
2017-08-16T07:22:53.298Z,76.91
2017-08-16T07:23:55.190Z,76.91
2017-08-16T07:24:57.080Z,77.30
2017-08-16T07:25:58.972Z,77.30
2017-08-16T07:27:13.136Z,76.62
2017-08-16T07:28:15.027Z,75.95
2017-08-16T07:29:16.929Z,75.85
2017-08-16T07:30:18.826Z,75.50
2017-08-16T07:31:20.657Z,76.14
2017-08-16T07:32:22.489Z,75.95
2017-08-16T07:33:24.381Z,76.14
2017-08-16T07:34:26.282Z,76.43
2017-08-16T07:35:28.173Z,76.24
2017-08-16T07:36:42.340Z,76.24
2017-08-16T07:37:44.244Z,75.95
2017-08-16T07:38:46.136Z,75.70
2017-08-16T07:39:48.028Z,75.31
2017-08-16T07:40:49.862Z,75.40
2017-08-16T07:41:51.694Z,75.31
2017-08-16T07:42:53.583Z,75.60
2017-08-16T07:43:55.475Z,75.70
2017-08-16T07:44:57.376Z,75.73
2017-08-16T07:46:11.544Z,75.73
2017-08-16T07:47:13.439Z,74.86
2017-08-16T07:48:15.341Z,73.02
2017-08-16T07:49:17.235Z,73.02
2017-08-16T07:50:19.070Z,72.34
2017-08-16T07:51:20.899Z,71.89
2017-08-16T07:52:22.796Z,70.63
2017-08-16T07:53:24.687Z,69.67
2017-08-16T07:54:26.589Z,69.18
2017-08-16T07:55:40.768Z,68.50
2017-08-16T07:56:42.672Z,68.02
2017-08-16T07:57:44.563Z,67.82
2017-08-16T07:58:46.467Z,68.08
2017-08-16T07:59:48.298Z,68.56
2017-08-16T08:00:50.142Z,68.95
2017-08-16T08:01:52.035Z,69.43
2017-08-16T08:02:53.930Z,68.56
2017-08-16T08:03:55.822Z,68.91
2017-08-16T08:05:09.995Z,69.69
2017-08-16T08:06:11.887Z,69.59
2017-08-16T08:07:13.777Z,69.59
2017-08-16T08:08:15.671Z,69.59
2017-08-16T08:09:17.505Z,69.69
2017-08-16T08:10:19.345Z,68.63
2017-08-16T08:11:21.240Z,68.53
2017-08-16T08:12:23.129Z,69.01
2017-08-16T08:13:25.031Z,68.53
2017-08-16T08:14:39.197Z,68.73
2017-08-16T08:15:41.090Z,68.82
2017-08-16T08:16:42.987Z,69.31
2017-08-16T08:17:44.876Z,69.31
2017-08-16T08:18:46.708Z,69.31
2017-08-16T08:19:48.553Z,68.95
2017-08-16T08:20:50.443Z,68.73
2017-08-16T08:21:52.344Z,68.95
2017-08-16T08:22:54.245Z,68.66
2017-08-16T08:24:08.413Z,68.76
2017-08-16T08:25:10.306Z,68.85
2017-08-16T08:26:12.206Z,69.34
2017-08-16T08:27:14.110Z,69.24
2017-08-16T08:28:15.937Z,69.63
2017-08-16T08:29:17.765Z,69.43
2017-08-16T08:30:19.671Z,70.01
2017-08-16T08:31:21.561Z,69.92
2017-08-16T08:32:23.467Z,69.37
2017-08-16T08:33:37.634Z,68.60
2017-08-16T08:34:39.525Z,68.60
2017-08-16T08:35:41.428Z,68.60
2017-08-16T08:36:43.325Z,68.99
2017-08-16T08:37:45.157Z,68.89
2017-08-16T08:38:46.987Z,69.08
2017-08-16T08:39:48.881Z,69.57
2017-08-16T08:40:50.774Z,69.37
2017-08-16T08:41:52.664Z,68.89
2017-08-16T08:43:06.832Z,68.70
2017-08-16T08:44:08.726Z,68.56
2017-08-16T08:45:10.631Z,67.88
2017-08-16T08:46:12.529Z,68.08
2017-08-16T08:47:14.358Z,68.08
2017-08-16T08:48:16.185Z,69.01
2017-08-16T08:49:18.113Z,68.56
2017-08-16T08:50:19.986Z,69.24
2017-08-16T08:51:21.877Z,69.63
2017-08-16T08:52:36.045Z,69.40
2017-08-16T08:53:37.940Z,70.27
2017-08-16T08:54:39.834Z,69.98
2017-08-16T08:55:41.729Z,69.69
2017-08-16T08:56:43.560Z,69.98
2017-08-16T08:57:45.390Z,69.27
2017-08-16T08:58:47.281Z,69.98
2017-08-16T08:59:49.171Z,70.62
2017-08-16T09:00:51.064Z,70.53
2017-08-16T09:02:05.242Z,71.36
2017-08-16T09:03:07.132Z,71.66
2017-08-16T09:04:09.033Z,71.94
2017-08-16T09:05:10.926Z,72.00
2017-08-16T09:06:12.757Z,72.30
2017-08-16T09:07:14.585Z,72.58
2017-08-16T09:08:16.478Z,72.97
2017-08-16T09:09:18.369Z,72.88
2017-08-16T09:10:20.261Z,73.32
2017-08-16T09:11:34.429Z,73.71
2017-08-16T09:12:36.324Z,73.61
2017-08-16T09:13:38.217Z,73.42
2017-08-16T09:14:40.110Z,73.52
2017-08-16T09:15:41.952Z,73.61
2017-08-16T09:16:43.790Z,73.71
2017-08-16T09:17:45.686Z,73.90
2017-08-16T09:18:47.582Z,74.58
2017-08-16T09:19:49.475Z,74.64
2017-08-16T09:21:03.642Z,75.45
2017-08-16T09:22:05.547Z,74.83
2017-08-16T09:23:07.442Z,75.12
2017-08-16T09:24:09.338Z,75.79
2017-08-16T09:25:11.169Z,76.05
2017-08-16T09:26:12.997Z,76.24
2017-08-16T09:27:14.897Z,77.01
2017-08-16T09:28:16.791Z,76.95
2017-08-16T09:29:18.684Z,76.95
2017-08-16T09:30:32.850Z,76.57
2017-08-16T09:31:34.742Z,76.61
2017-08-16T09:32:36.630Z,76.61
2017-08-16T09:33:38.522Z,77.38
2017-08-16T09:34:40.353Z,77.53
2017-08-16T09:35:42.182Z,78.50
2017-08-16T09:36:44.074Z,79.75
2017-08-16T09:37:45.967Z,80.58
2017-08-16T09:38:47.858Z,81.16
2017-08-16T09:40:02.025Z,82.23
2017-08-16T09:41:03.917Z,82.86
2017-08-16T09:42:05.824Z,83.25
2017-08-16T09:43:07.720Z,83.83
2017-08-16T09:44:09.549Z,83.63
2017-08-16T09:45:11.377Z,83.96
2017-08-16T09:46:13.279Z,83.19
2017-08-16T09:47:15.183Z,83.44
2017-08-16T09:48:17.064Z,83.63
2017-08-16T09:49:31.240Z,83.83
2017-08-16T09:50:33.133Z,83.73
2017-08-16T09:51:35.026Z,83.63
2017-08-16T09:52:36.919Z,83.77
2017-08-16T09:53:38.749Z,83.58
2017-08-16T09:54:40.579Z,83.48
2017-08-16T09:55:42.472Z,83.87
2017-08-16T09:56:44.367Z,82.90
2017-08-16T09:57:46.263Z,82.90
2017-08-16T09:59:00.429Z,82.51
2017-08-16T10:00:02.323Z,82.42
2017-08-16T10:01:04.220Z,82.42
2017-08-16T10:02:06.112Z,82.36
2017-08-16T10:03:07.953Z,81.59
2017-08-16T10:04:09.793Z,81.98
2017-08-16T10:05:11.683Z,81.20
2017-08-16T10:06:13.580Z,81.15
2017-08-16T10:07:15.472Z,80.66
2017-08-16T10:08:29.698Z,79.99
2017-08-16T10:09:31.592Z,80.18
2017-08-16T10:10:33.486Z,80.95
2017-08-16T10:11:35.384Z,81.05
2017-08-16T10:12:37.216Z,79.99
2017-08-16T10:13:39.054Z,80.28
2017-08-16T10:14:40.959Z,80.38
2017-08-16T10:15:42.853Z,80.18
2017-08-16T10:16:44.962Z,80.18
2017-08-16T10:17:59.122Z,79.93
2017-08-16T10:19:01.019Z,79.99
2017-08-16T10:20:02.911Z,80.08
2017-08-16T10:21:04.803Z,79.99
2017-08-16T10:22:06.650Z,79.99
2017-08-16T10:23:08.475Z,80.22
2017-08-16T10:24:10.373Z,80.22
2017-08-16T10:25:12.266Z,80.03
2017-08-16T10:26:14.157Z,79.16
2017-08-16T10:27:28.325Z,79.54
2017-08-16T10:28:30.217Z,79.06
2017-08-16T10:29:32.119Z,78.87
2017-08-16T10:30:34.016Z,78.67
2017-08-16T10:31:35.848Z,79.25
2017-08-16T10:32:37.677Z,79.06
2017-08-16T10:33:39.587Z,79.35
2017-08-16T10:34:41.476Z,79.80
2017-08-16T10:35:43.369Z,79.70
2017-08-16T10:36:57.568Z,79.89
2017-08-16T10:37:59.459Z,80.66
2017-08-16T10:39:01.363Z,80.28
2017-08-16T10:40:03.265Z,81.24
2017-08-16T10:41:05.095Z,81.30
2017-08-16T10:42:06.935Z,81.68
2017-08-16T10:43:08.829Z,81.20
2017-08-16T10:44:10.739Z,81.30
2017-08-16T10:45:12.636Z,81.68
2017-08-16T10:46:26.801Z,82.03
2017-08-16T10:47:28.698Z,82.23
2017-08-16T10:48:30.590Z,82.61
2017-08-16T10:49:32.484Z,82.13
2017-08-16T10:50:34.316Z,81.78
2017-08-16T10:51:36.144Z,81.55
2017-08-16T10:52:38.043Z,81.84
2017-08-16T10:53:39.936Z,81.84
2017-08-16T10:54:41.830Z,82.32
2017-08-16T10:55:56.045Z,82.42
2017-08-16T10:56:57.940Z,82.61
2017-08-16T10:57:59.830Z,81.93
2017-08-16T10:59:01.732Z,81.74
2017-08-16T11:00:03.563Z,81.16
2017-08-16T11:01:05.390Z,81.07
2017-08-16T11:02:07.285Z,81.07
2017-08-16T11:03:09.180Z,81.26
2017-08-16T11:04:11.068Z,81.55
2017-08-16T11:05:25.236Z,82.03
2017-08-16T11:06:27.128Z,81.93
2017-08-16T11:07:29.032Z,81.93
2017-08-16T11:08:30.925Z,81.45
2017-08-16T11:09:32.758Z,81.45
2017-08-16T11:10:34.586Z,81.11
2017-08-16T11:11:36.490Z,80.91
2017-08-16T11:12:38.378Z,79.85
2017-08-16T11:13:40.284Z,80.05
2017-08-16T11:14:54.443Z,79.95
2017-08-16T11:15:56.272Z,79.95
2017-08-16T11:16:58.112Z,79.50
2017-08-16T11:17:59.945Z,79.02
2017-08-16T11:19:01.775Z,79.12
2017-08-16T11:20:03.666Z,79.60
2017-08-16T11:21:05.569Z,79.02
2017-08-16T11:22:07.443Z,79.50
2017-08-16T11:23:09.267Z,78.83
2017-08-16T11:24:23.445Z,78.25
2017-08-16T11:25:25.336Z,78.34
2017-08-16T11:26:27.237Z,78.00
2017-08-16T11:27:29.130Z,77.80
2017-08-16T11:28:30.965Z,77.61
2017-08-16T11:29:32.800Z,76.39
2017-08-16T11:30:34.712Z,76.49
2017-08-16T11:31:36.640Z,76.14
2017-08-16T11:32:38.543Z,74.98
2017-08-16T11:33:52.750Z,75.17
2017-08-16T11:34:54.684Z,74.98
2017-08-16T11:35:56.611Z,74.53
2017-08-16T11:36:59.077Z,74.53
2017-08-16T11:38:00.909Z,73.60
2017-08-16T11:39:02.797Z,73.11
2017-08-16T11:40:04.701Z,72.92
2017-08-16T11:41:06.605Z,72.38
2017-08-16T11:42:08.556Z,72.86
2017-08-16T11:43:22.823Z,71.70
2017-08-16T11:44:24.783Z,71.22
2017-08-16T11:45:26.699Z,70.44
2017-08-16T11:46:28.631Z,70.63
2017-08-16T11:47:30.505Z,70.28
2017-08-16T11:48:32.359Z,70.09
2017-08-16T11:49:34.305Z,69.41
2017-08-16T11:50:36.238Z,69.15
2017-08-16T11:51:38.162Z,68.34
2017-08-16T11:52:52.369Z,68.89
2017-08-16T11:53:54.267Z,69.57
2017-08-16T11:54:56.192Z,69.47
2017-08-16T11:55:58.125Z,68.60
2017-08-16T11:56:59.978Z,68.21
2017-08-16T11:58:01.839Z,68.34
2017-08-16T11:59:03.783Z,68.63
2017-08-16T12:00:05.722Z,68.34
2017-08-16T12:01:07.655Z,68.34
2017-08-16T12:02:21.829Z,68.08
2017-08-16T12:03:23.779Z,67.05
2017-08-16T12:04:25.691Z,66.99
2017-08-16T12:05:27.607Z,66.11
2017-08-16T12:06:29.484Z,64.78
2017-08-16T12:07:31.326Z,64.30
2017-08-16T12:08:33.291Z,64.01
2017-08-16T12:09:35.213Z,64.01
2017-08-16T12:10:37.129Z,64.49
2017-08-16T12:11:51.353Z,64.75
2017-08-16T12:12:53.285Z,64.95
2017-08-16T12:13:55.202Z,65.89
2017-08-16T12:14:57.116Z,65.85
2017-08-16T12:15:58.967Z,66.14
2017-08-16T12:17:00.832Z,66.79
2017-08-16T12:18:02.724Z,67.24
2017-08-16T12:19:04.637Z,68.12
2017-08-16T12:20:06.576Z,68.40
2017-08-16T12:21:20.806Z,68.44
2017-08-16T12:22:22.745Z,68.24
2017-08-16T12:23:24.657Z,67.27
2017-08-16T12:24:26.603Z,67.27
2017-08-16T12:25:28.460Z,66.99
2017-08-16T12:26:30.339Z,66.50
2017-08-16T12:27:32.294Z,66.50
2017-08-16T12:28:34.204Z,66.60
2017-08-16T12:29:36.123Z,66.44
2017-08-16T12:30:50.333Z,66.63
2017-08-16T12:31:52.248Z,66.14
2017-08-16T12:32:54.164Z,66.60
2017-08-16T12:33:56.089Z,66.63
2017-08-16T12:34:57.927Z,66.63
2017-08-16T12:35:59.807Z,66.82
2017-08-16T12:37:01.745Z,66.05
2017-08-16T12:38:03.636Z,66.63
2017-08-16T12:39:05.524Z,66.82
2017-08-16T12:40:19.729Z,67.14
2017-08-16T12:41:21.661Z,66.66
2017-08-16T12:42:23.563Z,66.66
2017-08-16T12:43:25.500Z,67.60
2017-08-16T12:44:27.344Z,68.15
2017-08-16T12:45:29.200Z,69.37
2017-08-16T12:46:31.109Z,70.96
2017-08-16T12:47:33.033Z,70.73
2017-08-16T12:48:34.995Z,71.22
2017-08-16T12:49:49.205Z,71.86
2017-08-16T12:50:51.117Z,72.44
2017-08-16T12:51:53.039Z,73.27
2017-08-16T12:52:54.946Z,74.59
2017-08-16T12:53:56.803Z,75.75
2017-08-16T12:54:58.668Z,76.87
2017-08-16T12:56:00.595Z,76.97
2017-08-16T12:57:02.541Z,76.39
2017-08-16T12:58:04.483Z,77.61
2017-08-16T12:59:18.766Z,77.71
2017-08-16T13:00:20.686Z,77.42
2017-08-16T13:01:22.619Z,78.25
2017-08-16T13:02:24.534Z,78.87
2017-08-16T13:03:26.417Z,78.54
2017-08-16T13:04:28.282Z,79.22
2017-08-16T13:05:30.205Z,79.70
2017-08-16T13:06:32.102Z,80.18
2017-08-16T13:07:34.027Z,80.38
2017-08-16T13:08:48.249Z,80.76
2017-08-16T13:09:50.180Z,80.08
2017-08-16T13:10:52.099Z,79.54
2017-08-16T13:11:54.015Z,79.20
2017-08-16T13:12:55.879Z,78.52
2017-08-16T13:13:57.747Z,77.45
2017-08-16T13:14:59.685Z,77.07
2017-08-16T13:16:01.619Z,77.55
2017-08-16T13:17:03.536Z,77.65
2017-08-16T13:18:17.758Z,77.26
2017-08-16T13:19:19.677Z,77.26
2017-08-16T13:20:21.603Z,76.97
2017-08-16T13:21:23.535Z,76.87
2017-08-16T13:22:25.385Z,77.07
2017-08-16T13:23:27.239Z,76.49
2017-08-16T13:24:29.216Z,76.59
2017-08-16T13:25:31.113Z,76.49
2017-08-16T13:26:33.050Z,77.03
2017-08-16T13:27:47.261Z,77.32
2017-08-16T13:28:49.171Z,77.61
2017-08-16T13:29:51.059Z,78.00
2017-08-16T13:30:52.952Z,78.64
2017-08-16T13:31:54.784Z,79.02
2017-08-16T13:32:56.612Z,79.70
2017-08-16T13:33:58.500Z,80.18